^^
Station Historical Data
 
Daily Summary for February 20, 2017 Units:  English    Metric   Both
« Previous Day
Next Day »
Daily Weekly Monthly Yearly Custom
  Current: High: Low: Average:
Temperature: 51.7 °F 51.7 °F 41.0 °F 46.3 °F
Dew Point: 19.6 °F 22.7 °F 13.9 °F 17.7 °F
Humidity: 28% 36% 28% 32%
Wind Speed: 11.5mph 16.1mph 0.0mph 5.2mph
Wind Gust: 11.5mph 16.1mph - -
WindNorth - - WSW
Pressure: 29.81 in 29.81 in 29.55 in -
Precipitation: 0.00 in      
Historical Graphs
 
 
Tabular Data for February 20, 2017
Time Temperature Dew Point Pressure Wind Wind Speed Wind Gust Humidity Rainfall Rate (Hourly) solar Conditions
00:01 50.0 °F 22.7 °F 29.55 in WSW 16.1 mph 16.1 mph 34% 0.00 in WeatherDisplay:10.37 W/m2 CLR
00:06 49.8 °F 21.8 °F 29.55 in NNW 10.4 mph 10.4 mph 33% 0.00 in WeatherDisplay:10.37 W/m2 CLR
00:11 49.7 °F 21.7 °F 29.55 in NNW 11.5 mph 11.5 mph 33% 0.00 in WeatherDisplay:10.37 W/m2 CLR
00:12 49.7 °F 21.7 °F 29.55 in NNW 13.8 mph 13.8 mph 33% 0.00 in WeatherDisplay:10.37 W/m2 CLR
00:16 49.6 °F 21.6 °F 29.56 in North 11.0 mph 11.0 mph 33% 0.00 in WeatherDisplay:10.37 W/m2 CLR
00:22 49.4 °F 21.5 °F 29.56 in NNW 13.8 mph 13.8 mph 33% 0.00 in WeatherDisplay:10.37 W/m2 CLR
00:27 49.2 °F 21.3 °F 29.57 in NNE 7.0 mph 7.0 mph 33% 0.00 in WeatherDisplay:10.37 W/m2 CLR
00:32 49.0 °F 21.1 °F 29.56 in NNE 10.0 mph 10.0 mph 33% 0.00 in WeatherDisplay:10.37 W/m2 CLR
00:37 48.8 °F 20.9 °F 29.57 in North 9.2 mph 9.2 mph 33% 0.00 in WeatherDisplay:10.37 W/m2 CLR
00:42 48.6 °F 20.8 °F 29.57 in North 6.9 mph 6.9 mph 33% 0.00 in WeatherDisplay:10.37 W/m2 CLR
00:47 48.5 °F 20.7 °F 29.57 in NNE 9.2 mph 9.2 mph 33% 0.00 in WeatherDisplay:10.37 W/m2 CLR
00:52 48.4 °F 20.6 °F 29.58 in NNW 6.0 mph 6.0 mph 33% 0.00 in WeatherDisplay:10.37 W/m2 CLR
00:57 48.4 °F 20.6 °F 29.58 in WNW 12.7 mph 12.7 mph 33% 0.00 in WeatherDisplay:10.37 W/m2 CLR
01:02 48.4 °F 19.9 °F 29.57 in NW 13.8 mph 13.8 mph 32% 0.00 in WeatherDisplay:10.37 W/m2 CLR
01:07 48.5 °F 19.9 °F 29.56 in NNW 9.2 mph 9.2 mph 32% 0.00 in WeatherDisplay:10.37 W/m2 CLR
01:12 48.3 °F 20.5 °F 29.58 in NW 6.0 mph 6.0 mph 33% 0.00 in WeatherDisplay:10.37 W/m2 CLR
01:17 48.0 °F 20.2 °F 29.58 in North 5.0 mph 5.0 mph 33% 0.00 in WeatherDisplay:10.37 W/m2 CLR
01:22 47.8 °F 20.1 °F 29.58 in North 11.5 mph 11.5 mph 33% 0.00 in WeatherDisplay:10.37 W/m2 CLR
01:27 47.7 °F 20.7 °F 29.59 in NW 6.9 mph 6.9 mph 34% 0.00 in WeatherDisplay:10.37 W/m2 CLR
01:32 47.4 °F 20.4 °F 29.59 in WSW 4.6 mph 4.6 mph 34% 0.00 in WeatherDisplay:10.37 W/m2 CLR
01:37 47.0 °F 20.0 °F 29.59 in WSW 4.6 mph 4.6 mph 34% 0.00 in WeatherDisplay:10.37 W/m2 CLR
01:42 46.9 °F 20.0 °F 29.59 in SW 2.3 mph 2.3 mph 34% 0.00 in WeatherDisplay:10.37 W/m2 CLR
01:47 46.6 °F 19.7 °F 29.59 in SSW 2.3 mph 2.3 mph 34% 0.00 in WeatherDisplay:10.37 W/m2 CLR
01:52 46.3 °F 20.1 °F 29.60 in West 3.5 mph 3.5 mph 35% 0.00 in WeatherDisplay:10.37 W/m2 CLR
01:57 45.8 °F 19.7 °F 29.61 in West 3.5 mph 3.5 mph 35% 0.00 in WeatherDisplay:10.37 W/m2 CLR
02:02 45.3 °F 19.2 °F 29.62 in West 1.2 mph 1.2 mph 35% 0.00 in WeatherDisplay:10.37 W/m2 CLR
02:07 45.0 °F 19.0 °F 29.62 in NW 1.2 mph 1.2 mph 35% 0.00 in WeatherDisplay:10.37 W/m2 CLR
02:12 44.8 °F 18.8 °F 29.61 in NNW 1.2 mph   35% 0.00 in WeatherDisplay:10.37 W/m2 CLR
02:17 44.7 °F 18.7 °F 29.62 in West 3.5 mph 3.5 mph 35% 0.00 in WeatherDisplay:10.37 W/m2 CLR
02:22 45.0 °F 19.0 °F 29.62 in North 6.9 mph 6.9 mph 35% 0.00 in WeatherDisplay:10.37 W/m2 CLR
02:27 45.5 °F 18.0 °F 29.62 in NW 6.9 mph 6.9 mph 33% 0.00 in WeatherDisplay:10.37 W/m2 CLR
02:32 46.0 °F 18.5 °F 29.61 in NW 4.6 mph 4.6 mph 33% 0.00 in WeatherDisplay:10.37 W/m2 CLR
02:37 46.0 °F 18.5 °F 29.62 in NNE 2.3 mph 2.3 mph 33% 0.00 in WeatherDisplay:10.37 W/m2 CLR
02:42 46.0 °F 18.5 °F 29.62 in West 5.0 mph 5.0 mph 33% 0.00 in WeatherDisplay:10.37 W/m2 CLR
02:47 46.1 °F 17.8 °F 29.62 in SSW 4.6 mph 4.6 mph 32% 0.00 in WeatherDisplay:10.37 W/m2 CLR
02:52 46.4 °F 16.6 °F 29.63 in ESE 6.9 mph 6.9 mph 30% 0.00 in WeatherDisplay:10.37 W/m2 CLR
02:57 46.9 °F 16.3 °F 29.63 in West 6.9 mph 6.9 mph 29% 0.00 in WeatherDisplay:10.37 W/m2 CLR
03:02 47.2 °F 15.7 °F 29.64 in NNW 9.2 mph 9.2 mph 28% 0.00 in WeatherDisplay:10.37 W/m2 CLR
03:07 47.6 °F 16.1 °F 29.63 in WNW 3.5 mph 3.5 mph 28% 0.00 in WeatherDisplay:10.37 W/m2 CLR
03:12 47.5 °F 16.0 °F 29.64 in NNE 5.0 mph 5.0 mph 28% 0.00 in WeatherDisplay:10.37 W/m2 CLR
03:17 47.7 °F 16.9 °F 29.65 in ESE 3.5 mph 3.5 mph 29% 0.00 in WeatherDisplay:10.37 W/m2 CLR
03:22 47.6 °F 16.9 °F 29.65 in NNE 6.9 mph 6.9 mph 29% 0.00 in WeatherDisplay:10.37 W/m2 CLR
03:27 47.7 °F 16.9 °F 29.66 in North 9.2 mph 9.2 mph 29% 0.00 in WeatherDisplay:10.37 W/m2 CLR
03:32 47.3 °F 18.1 °F 29.66 in NNW 5.8 mph 5.8 mph 31% 0.00 in WeatherDisplay:10.37 W/m2 CLR
03:33 47.2 °F 18.1 °F 29.66 in NNE 4.6 mph 4.6 mph 31% 0.00 in WeatherDisplay:10.37 W/m2 CLR
03:38 46.4 °F 18.1 °F 29.66 in North 2.3 mph 2.3 mph 32% 0.00 in WeatherDisplay:10.37 W/m2 CLR
03:43 45.8 °F 18.3 °F 29.68 in Calm     33% 0.00 in WeatherDisplay:10.37 W/m2 CLR
03:48 45.1 °F 17.7 °F 29.68 in NNW 2.3 mph 2.3 mph 33% 0.00 in WeatherDisplay:10.37 W/m2 CLR
03:53 44.4 °F 17.7 °F 29.68 in Calm     34% 0.00 in WeatherDisplay:10.37 W/m2 CLR
03:58 43.7 °F 17.8 °F 29.70 in NW 1.2 mph 1.2 mph 35% 0.00 in WeatherDisplay:10.37 W/m2 CLR
04:03 43.1 °F 17.9 °F 29.71 in Calm     36% 0.00 in WeatherDisplay:10.37 W/m2 CLR
04:08 42.5 °F 17.4 °F 29.71 in Calm     36% 0.00 in WeatherDisplay:10.37 W/m2 CLR
04:13 42.0 °F 16.9 °F 29.71 in WNW 2.3 mph 2.3 mph 36% 0.00 in WeatherDisplay:10.37 W/m2 CLR
04:18 41.5 °F 16.5 °F 29.72 in Calm     36% 0.00 in WeatherDisplay:10.37 W/m2 CLR
04:23 41.2 °F 15.6 °F 29.74 in NW 3.5 mph 3.5 mph 35% 0.00 in WeatherDisplay:10.37 W/m2 CLR
04:28 41.3 °F 16.3 °F 29.74 in Calm     36% 0.00 in WeatherDisplay:10.37 W/m2 CLR
04:33 41.2 °F 15.6 °F 29.74 in Calm     35% 0.00 in WeatherDisplay:10.37 W/m2 CLR
04:38 41.0 °F 14.7 °F 29.74 in Calm     34% 0.00 in WeatherDisplay:10.37 W/m2 CLR
04:43 41.2 °F 14.9 °F 29.74 in West 3.5 mph 3.5 mph 34% 0.00 in WeatherDisplay:10.37 W/m2 CLR
04:48 42.7 °F 14.8 °F 29.73 in WNW 4.6 mph 4.6 mph 32% 0.00 in WeatherDisplay:10.37 W/m2 CLR
04:53 44.4 °F 15.6 °F 29.73 in WSW 2.3 mph 2.3 mph 31% 0.00 in WeatherDisplay:10.37 W/m2 CLR
04:58 45.1 °F 15.5 °F 29.73 in WSW 3.5 mph 3.5 mph 30% 0.00 in WeatherDisplay:10.37 W/m2 CLR
05:03 46.0 °F 15.5 °F 29.73 in WNW 6.9 mph 6.9 mph 29% 0.00 in WeatherDisplay:10.37 W/m2 CLR
05:08 46.5 °F 15.1 °F 29.74 in West 5.8 mph 5.8 mph 28% 0.00 in WeatherDisplay:10.37 W/m2 CLR
05:13 46.4 °F 15.8 °F 29.74 in SW 1.2 mph   29% 0.00 in WeatherDisplay:10.37 W/m2 CLR
05:18 46.1 °F 15.6 °F 29.74 in WSW 1.2 mph 1.2 mph 29% 0.00 in WeatherDisplay:10.37 W/m2 CLR
05:23 45.6 °F 15.9 °F 29.74 in Calm   0.1 mph 30% 0.00 in WeatherDisplay:10.37 W/m2 CLR
05:28 45.0 °F 15.4 °F 29.75 in West 2.3 mph 2.3 mph 30% 0.00 in WeatherDisplay:10.37 W/m2 CLR
05:33 44.5 °F 14.9 °F 29.75 in West 1.2 mph 1.2 mph 30% 0.00 in WeatherDisplay:10.37 W/m2 CLR
05:38 44.0 °F 15.3 °F 29.75 in Calm     31% 0.00 in WeatherDisplay:10.37 W/m2 CLR
05:41 43.7 °F 15.0 °F 29.75 in WNW 2.3 mph 2.3 mph 31% 0.00 in WeatherDisplay:10.37 W/m2 CLR
05:46 43.4 °F 14.7 °F 29.75 in West 3.5 mph 3.5 mph 31% 0.00 in WeatherDisplay:10.37 W/m2 CLR
05:51 43.1 °F 15.2 °F 29.76 in West 1.2 mph 1.2 mph 32% 0.00 in WeatherDisplay:10.37 W/m2 CLR
05:56 42.8 °F 14.9 °F 29.75 in West 3.5 mph 3.5 mph 32% 0.00 in WeatherDisplay:10.37 W/m2 CLR
06:01 42.5 °F 14.7 °F 29.75 in West 1.2 mph 1.2 mph 32% 0.00 in WeatherDisplay:10.37 W/m2 CLR
06:06 42.3 °F 15.2 °F 29.76 in West 1.0 mph   33% 0.00 in WeatherDisplay:10.37 W/m2 CLR
06:11 42.0 °F 14.9 °F 29.76 in SW 2.3 mph 2.3 mph 33% 0.00 in WeatherDisplay:10.37 W/m2 CLR
06:16 41.9 °F 14.1 °F 29.76 in WSW 4.6 mph 4.6 mph 32% 0.00 in WeatherDisplay:10.37 W/m2 CLR
06:21 42.6 °F 14.0 °F 29.75 in West 6.9 mph 6.9 mph 31% 0.00 in WeatherDisplay:10.37 W/m2 CLR
06:26 43.3 °F 13.9 °F 29.75 in SW 10.4 mph 10.4 mph 30% 0.00 in WeatherDisplay:10.37 W/m2 CLR
06:31 44.0 °F 14.5 °F 29.75 in NW 9.2 mph 9.2 mph 30% 0.00 in WeatherDisplay:10.37 W/m2 CLR
06:36 44.8 °F 15.2 °F 29.76 in NNW 5.8 mph 5.8 mph 30% 0.00 in WeatherDisplay:10.37 W/m2 CLR
06:41 45.3 °F 15.6 °F 29.77 in NNW 11.5 mph 11.5 mph 30% 0.00 in WeatherDisplay:10.37 W/m2 CLR
06:46 45.8 °F 15.3 °F 29.78 in NW 4.6 mph 4.6 mph 29% 0.00 in WeatherDisplay:10.37 W/m2 CLR
06:51 46.3 °F 15.7 °F 29.78 in East 13.8 mph 13.8 mph 29% 0.00 in WeatherDisplay:10.37 W/m2 CLR
06:52 46.3 °F 15.7 °F 29.78 in North 5.8 mph 5.8 mph 29% 0.00 in WeatherDisplay:10.37 W/m2 CLR
06:57 46.7 °F 16.1 °F 29.77 in SW 5.8 mph 5.8 mph 29% 0.00 in WeatherDisplay:10.37 W/m2 CLR
07:02 47.2 °F 15.7 °F 29.78 in NNW 10.4 mph 10.4 mph 28% 0.00 in WeatherDisplay:10.37 W/m2 CLR
07:07 47.4 °F 15.9 °F 29.79 in WNW 8.1 mph 8.1 mph 28% 0.00 in WeatherDisplay:10.37 W/m2 CLR
07:12 47.6 °F 16.1 °F 29.78 in NNW 9.2 mph 9.2 mph 28% 0.00 in WeatherDisplay:10.37 W/m2 CLR
07:17 47.9 °F 16.3 °F 29.78 in WSW 11.5 mph 11.5 mph 28% 0.00 in WeatherDisplay:10.37 W/m2 CLR
07:22 48.2 °F 17.4 °F 29.79 in West 1.2 mph 1.2 mph 29% 0.00 in WeatherDisplay:10.37 W/m2 CLR
07:27 48.5 °F 17.6 °F 29.79 in West 1.2 mph 1.2 mph 29% 0.00 in WeatherDisplay:10.37 W/m2 CLR
07:32 48.9 °F 18.0 °F 29.79 in North 9.2 mph 9.2 mph 29% 0.00 in WeatherDisplay:10.37 W/m2 CLR
07:37 49.2 °F 18.3 °F 29.79 in North 5.8 mph 5.8 mph 29% 0.00 in WeatherDisplay:10.37 W/m2 CLR
07:42 49.4 °F 18.4 °F 29.79 in West 3.5 mph 3.5 mph 29% 0.00 in WeatherDisplay:10.37 W/m2 CLR
07:47 49.7 °F 18.7 °F 29.79 in NW 3.5 mph 3.5 mph 29% 0.00 in WeatherDisplay:10.37 W/m2 CLR
07:52 50.0 °F 18.9 °F 29.79 in WNW 3.5 mph 3.5 mph 29% 0.00 in WeatherDisplay:10.37 W/m2 CLR
07:57 50.5 °F 19.4 °F 29.80 in NNW 1.2 mph 1.2 mph 29% 0.00 in WeatherDisplay:10.37 W/m2 CLR
08:02 50.9 °F 19.7 °F 29.80 in WSW 3.5 mph 3.5 mph 29% 0.00 in WeatherDisplay:10.37 W/m2 CLR
08:07 51.1 °F 19.9 °F 29.80 in NW 8.1 mph 8.1 mph 29% 0.00 in WeatherDisplay:10.37 W/m2 CLR
08:12 51.2 °F 20.0 °F 29.81 in NNE 2.3 mph 2.3 mph 29% 0.00 in WeatherDisplay:10.37 W/m2 CLR
08:17 51.5 °F 20.2 °F 29.81 in NNW 4.6 mph 4.6 mph 29% 0.00 in WeatherDisplay:10.37 W/m2 CLR
08:22 51.7 °F 19.6 °F 29.81 in North 11.5 mph 11.5 mph 28% 0.00 in WeatherDisplay:10.37 W/m2 CLR
Windsor Co Weather
Compliments of Weather Underground - 2 mb